Time;durP1;ratioP1;P1;durP2;ratioP2;P2;SDS_P1;SDS_P2;PMS_P1;PMS_P2;Temp;Humidity;BMP_temperature;BMP_pressure;BME280_temperature;BME280_humidity;BME280_pressure;Samples;Min_cycle;Max_cycle;Signal;HPM_P1;HPM_P2
2022/03/26 00:02:13;;;;;;;30.67;19.27;;;;;;;8.39;53.05;99194.47;5055249;28;20239;-71
2022/03/26 00:04:41;;;;;;;30.73;18.90;;;;;;;8.41;53.01;99199.69;5056481;28;20674;-71
2022/03/26 00:07:07;;;;;;;30.30;19.13;;;;;;;8.38;52.77;99197.19;5055539;28;20594;-71
2022/03/26 00:09:33;;;;;;;32.27;19.57;;;;;;;8.34;52.71;99190.34;5055189;28;20589;-70
2022/03/26 00:12:00;;;;;;;32.53;19.27;;;;;;;8.34;52.88;99190.34;5055422;28;20227;-70
2022/03/26 00:14:26;;;;;;;31.50;18.53;;;;;;;8.20;53.23;99190.94;5056064;28;20696;-71
2022/03/26 00:16:53;;;;;;;29.77;17.90;;;;;;;8.10;53.68;99199.25;5041517;28;20235;-71
2022/03/26 00:19:20;;;;;;;29.80;19.20;;;;;;;8.14;53.56;99200.84;5053715;28;20215;-71
2022/03/26 00:21:48;;;;;;;29.93;18.67;;;;;;;8.04;53.74;99196.88;5053454;28;20212;-71
2022/03/26 00:24:15;;;;;;;27.83;17.53;;;;;;;7.84;54.27;99196.88;5056192;28;20220;-71
2022/03/26 00:26:42;;;;;;;26.40;17.47;;;;;;;7.68;55.32;99198.41;5055240;28;20211;-71
2022/03/26 00:29:09;;;;;;;27.83;17.97;;;;;;;7.55;57.60;99205.97;5054988;28;20216;-71
2022/03/26 00:31:37;;;;;;;30.53;17.90;;;;;;;7.49;57.98;99200.06;5054670;28;20239;-71
2022/03/26 00:34:04;;;;;;;29.90;17.90;;;;;;;7.45;57.82;99203.72;5055703;28;20216;-71
2022/03/26 00:36:31;;;;;;;27.93;17.57;;;;;;;7.44;57.99;99202.03;5055181;28;20207;-71
2022/03/26 00:38:59;;;;;;;31.90;18.67;;;;;;;7.55;56.74;99202.47;5055088;28;20569;-71
2022/03/26 00:41:25;;;;;;;31.33;18.70;;;;;;;7.60;56.39;99213.66;5054586;28;20216;-71
2022/03/26 00:43:52;;;;;;;31.17;19.50;;;;;;;7.49;57.57;99208.84;5055508;28;20278;-71
2022/03/26 00:46:19;;;;;;;29.07;18.50;;;;;;;7.49;57.11;99214.09;5053529;28;20226;-71
2022/03/26 00:48:45;;;;;;;32.27;18.90;;;;;;;7.42;57.73;99220.50;5054564;28;20254;-71
2022/03/26 00:51:15;;;;;;;34.73;19.27;;;;;;;7.45;58.35;99219.53;5054566;28;20296;-71
2022/03/26 00:53:41;;;;;;;32.10;18.63;;;;;;;7.50;57.50;99207.03;5055202;28;20656;-71
2022/03/26 00:56:09;;;;;;;33.30;19.27;;;;;;;7.39;58.15;99215.38;5055132;28;20216;-71
2022/03/26 00:58:36;;;;;;;27.90;17.90;;;;;;;7.39;58.55;99211.88;5054541;28;20218;-71
2022/03/26 01:01:02;;;;;;;28.97;17.57;;;;;;;7.32;58.63;99206.94;5054531;28;20251;-71
2022/03/26 01:03:29;;;;;;;33.13;18.43;;;;;;;7.35;58.90;99212.94;5054629;28;20212;-71
2022/03/26 01:05:55;;;;;;;30.57;18.13;;;;;;;7.56;57.07;99212.06;5055454;28;20725;-71
2022/03/26 01:08:21;;;;;;;27.43;17.93;;;;;;;7.54;57.08;99206.84;5054166;28;20223;-71
2022/03/26 01:10:48;;;;;;;29.23;18.53;;;;;;;7.62;56.69;99207.41;5052380;28;20243;-71
2022/03/26 01:13:17;;;;;;;27.80;18.27;;;;;;;7.65;56.87;99203.81;5054488;28;20216;-71
2022/03/26 01:15:43;;;;;;;26.30;16.97;;;;;;;7.57;56.79;99203.25;5053161;28;20214;-71
2022/03/26 01:18:10;;;;;;;30.10;18.00;;;;;;;7.55;56.94;99205.09;5054317;28;20212;-72
2022/03/26 01:20:37;;;;;;;28.40;16.87;;;;;;;7.55;56.82;99202.47;5054238;28;20212;-71
2022/03/26 01:23:04;;;;;;;26.80;16.90;;;;;;;7.45;56.79;99193.22;5054445;28;20222;-71
2022/03/26 01:25:30;;;;;;;28.83;17.00;;;;;;;7.36;57.53;99201.47;5062239;28;20218;-72
2022/03/26 01:27:57;;;;;;;27.10;17.33;;;;;;;7.37;57.67;99200.56;5060644;28;20208;-72
2022/03/26 01:30:25;;;;;;;29.50;17.57;;;;;;;7.37;56.71;99200.56;5060835;28;20250;-72
2022/03/26 01:32:52;;;;;;;27.90;16.97;;;;;;;7.38;57.39;99197.00;5060701;28;20215;-72
2022/03/26 01:35:19;;;;;;;29.20;16.57;;;;;;;7.23;57.77;99202.88;5061858;28;20261;-71
2022/03/26 01:37:46;;;;;;;28.47;17.33;;;;;;;7.16;58.42;99206.66;5058901;28;20212;-71
2022/03/26 01:40:13;;;;;;;29.33;18.00;;;;;;;7.12;58.35;99199.81;5060558;28;20254;-71
2022/03/26 01:42:39;;;;;;;28.63;16.87;;;;;;;7.14;58.10;99203.22;5060464;28;20218;-71
2022/03/26 01:45:07;;;;;;;28.10;16.67;;;;;;;7.14;58.69;99205.84;5061867;28;20219;-71
2022/03/26 01:47:35;;;;;;;27.37;15.87;;;;;;;7.09;58.55;99204.34;5060800;28;20619;-72
2022/03/26 01:50:01;;;;;;;24.40;15.67;;;;;;;6.99;59.23;99198.56;5060611;28;20219;-71
2022/03/26 01:52:27;;;;;;;28.90;17.00;;;;;;;6.87;59.96;99196.41;5060446;28;20218;-72
2022/03/26 01:54:54;;;;;;;25.63;16.77;;;;;;;6.82;59.11;99193.09;5060908;28;20242;-71
2022/03/26 01:57:21;;;;;;;26.67;16.80;;;;;;;6.77;60.01;99191.56;5060786;28;20218;-72
2022/03/26 01:59:47;;;;;;;27.83;16.67;;;;;;;6.74;60.67;99197.78;5059649;28;20219;-72
2022/03/26 02:02:15;;;;;;;26.80;16.67;;;;;;;6.68;61.34;99197.13;5059409;28;20236;-70
2022/03/26 02:04:43;;;;;;;25.97;15.80;;;;;;;6.67;62.01;99195.44;5061240;28;20229;-71
2022/03/26 02:07:09;;;;;;;27.13;16.73;;;;;;;6.62;62.49;99197.34;5060350;28;20684;-71
2022/03/26 02:09:37;;;;;;;29.47;16.17;;;;;;;6.72;60.96;99196.13;5060948;28;20222;-71
2022/03/26 02:12:21;;;;;;;26.00;16.37;;;;;;;6.69;61.50;99199.72;5060264;28;20248;-71
2022/03/26 02:14:48;;;;;;;26.47;16.23;;;;;;;6.68;61.36;99194.50;5060171;28;20320;-72
2022/03/26 02:17:17;;;;;;;33.40;16.60;;;;;;;6.62;61.74;99187.72;5060173;28;20273;-72
2022/03/26 02:19:49;;;;;;;26.87;16.03;;;;;;;6.53;61.93;99182.78;5060423;28;20619;-73
2022/03/26 02:22:16;;;;;;;26.67;16.83;;;;;;;6.46;62.42;99194.44;5059827;28;20699;-72
2022/03/26 02:24:42;;;;;;;26.97;16.53;;;;;;;6.46;62.53;99191.81;5060484;28;20273;-71
2022/03/26 02:27:10;;;;;;;26.30;15.93;;;;;;;6.46;62.01;99180.44;5060063;28;20223;-71
2022/03/26 02:29:36;;;;;;;28.50;15.87;;;;;;;6.49;61.67;99190.84;5058730;28;20584;-71
2022/03/26 02:32:03;;;;;;;24.93;15.93;;;;;;;6.50;61.09;99182.91;5060737;28;20250;-70
2022/03/26 02:34:30;;;;;;;24.70;15.40;;;;;;;6.60;60.42;99188.69;5058902;28;20219;-70
2022/03/26 02:36:59;;;;;;;25.97;15.47;;;;;;;6.62;60.90;99186.84;5057342;28;20219;-72
2022/03/26 02:39:25;;;;;;;26.70;15.40;;;;;;;6.56;60.59;99182.69;5057716;28;20216;-72
2022/03/26 02:41:52;;;;;;;26.97;16.33;;;;;;;6.48;61.36;99179.47;5058089;28;20242;-72
2022/03/26 02:44:18;;;;;;;27.23;16.13;;;;;;;6.47;61.42;99190.88;5058863;28;20215;-72
2022/03/26 02:46:45;;;;;;;29.60;17.77;;;;;;;6.48;60.65;99189.97;5060608;28;20695;-71
2022/03/26 02:49:12;;;;;;;29.53;17.10;;;;;;;6.49;60.55;99186.47;5061177;28;20279;-71
2022/03/26 02:51:39;;;;;;;24.90;15.53;;;;;;;6.52;60.39;99186.34;5060908;28;20243;-71
2022/03/26 02:54:18;;;;;;;27.77;16.53;;;;;;;6.50;60.68;99182.06;5059547;28;20227;-71
2022/03/26 02:56:45;;;;;;;28.10;15.87;;;;;;;6.45;60.85;99182.22;5056710;28;20230;-71
2022/03/26 02:59:11;;;;;;;28.63;15.77;;;;;;;6.36;61.41;99179.91;5057011;28;20214;-72
2022/03/26 03:01:38;;;;;;;23.93;14.77;;;;;;;6.25;61.72;99182.09;5057997;28;20262;-71
2022/03/26 03:04:04;;;;;;;28.83;17.10;;;;;;;6.26;62.01;99183.78;5056518;28;20229;-72
2022/03/26 03:06:31;;;;;;;24.80;16.00;;;;;;;6.24;61.41;99185.59;5056717;28;20219;-72
2022/03/26 03:08:58;;;;;;;29.30;16.47;;;;;;;6.20;61.90;99178.75;5056231;28;20225;-71
2022/03/26 03:11:25;;;;;;;26.07;15.70;;;;;;;6.12;62.30;99178.16;5057355;28;20262;-71
2022/03/26 03:13:52;;;;;;;26.03;16.50;;;;;;;6.03;62.89;99178.47;5056600;28;20218;-72
2022/03/26 03:16:18;;;;;;;28.70;16.00;;;;;;;5.95;63.62;99177.91;5056657;28;20693;-71
2022/03/26 03:18:45;;;;;;;26.70;15.97;;;;;;;5.81;64.96;99174.88;5056414;28;20589;-71
2022/03/26 03:21:11;;;;;;;26.83;16.30;;;;;;;5.69;67.00;99180.50;5054606;28;20222;-71
2022/03/26 03:23:38;;;;;;;25.73;16.53;;;;;;;5.58;67.82;99184.38;5056202;28;20215;-71
2022/03/26 03:26:05;;;;;;;29.47;17.13;;;;;;;5.45;67.92;99173.44;5056249;28;20560;-71
2022/03/26 03:28:33;;;;;;;28.77;17.20;;;;;;;5.40;68.61;99180.59;5056196;28;20219;-72
2022/03/26 03:30:59;;;;;;;29.93;17.30;;;;;;;5.36;69.36;99171.13;5056207;28;20645;-72
2022/03/26 03:33:26;;;;;;;28.23;17.90;;;;;;;5.31;69.61;99172.19;5057090;28;20218;-72
2022/03/26 03:35:53;;;;;;;32.67;19.43;;;;;;;5.23;69.72;99175.03;5056188;28;20241;-71
2022/03/26 03:38:19;;;;;;;32.10;19.37;;;;;;;5.10;71.05;99171.09;5056033;28;20227;-70
2022/03/26 03:40:46;;;;;;;34.00;19.90;;;;;;;5.01;71.22;99179.22;5055960;28;20223;-71
2022/03/26 03:43:12;;;;;;;32.30;19.47;;;;;;;4.94;72.24;99172.44;5057344;28;20217;-71
2022/03/26 03:45:40;;;;;;;30.33;18.30;;;;;;;4.88;72.80;99175.25;5055516;28;20214;-72
2022/03/26 03:48:07;;;;;;;29.20;18.60;;;;;;;4.83;73.49;99177.16;5053820;28;20218;-71
2022/03/26 03:50:34;;;;;;;29.47;18.27;;;;;;;4.80;74.06;99181.63;5055790;28;20217;-71
2022/03/26 03:53:00;;;;;;;29.77;17.33;;;;;;;4.70;74.75;99172.34;5057069;28;20217;-71
2022/03/26 03:55:27;;;;;;;30.03;18.97;;;;;;;4.74;74.54;99171.31;5055653;28;20226;-72
2022/03/26 03:57:54;;;;;;;29.40;16.90;;;;;;;4.73;74.84;99173.09;5055606;28;20229;-71
2022/03/26 04:00:21;;;;;;;31.63;18.50;;;;;;;4.76;74.83;99173.00;5055506;28;20220;-72
2022/03/26 04:02:49;;;;;;;29.50;17.37;;;;;;;4.76;74.95;99173.00;5056945;28;20245;-72
2022/03/26 04:05:16;;;;;;;32.90;19.07;;;;;;;4.77;75.86;99179.94;5055463;28;20220;-72
2022/03/26 04:07:44;;;;;;;30.67;18.33;;;;;;;4.72;76.09;99174.00;5055224;28;20223;-71
2022/03/26 04:10:11;;;;;;;29.03;18.97;;;;;;;4.66;76.14;99170.69;5055358;28;20318;-71
2022/03/26 04:12:39;;;;;;;30.03;18.50;;;;;;;4.59;75.84;99175.25;5054426;28;20746;-70
2022/03/26 04:15:07;;;;;;;30.83;17.90;;;;;;;4.48;76.23;99174.72;5055381;28;20214;-71
2022/03/26 04:17:34;;;;;;;29.23;18.50;;;;;;;4.36;76.82;99175.06;5055205;28;20215;-71
2022/03/26 04:20:03;;;;;;;32.50;18.90;;;;;;;4.29;75.95;99185.75;5054909;28;20218;-71
2022/03/26 04:22:29;;;;;;;31.63;19.93;;;;;;;4.14;76.30;99173.94;5054861;28;20216;-71
2022/03/26 04:24:56;;;;;;;30.57;18.33;;;;;;;4.03;76.82;99183.81;5055181;28;20216;-71
2022/03/26 04:27:22;;;;;;;33.27;20.10;;;;;;;3.92;77.24;99185.84;5054930;28;20242;-71
2022/03/26 04:29:49;;;;;;;29.90;18.57;;;;;;;3.89;77.53;99175.50;5055064;28;20209;-70
2022/03/26 04:32:16;;;;;;;27.80;17.03;;;;;;;3.88;78.11;99176.41;5056297;28;20240;-72
2022/03/26 04:34:42;;;;;;;27.70;17.17;;;;;;;3.92;78.14;99180.63;5054687;28;20224;-71
2022/03/26 04:37:10;;;;;;;32.00;19.13;;;;;;;3.85;78.73;99183.47;5055036;28;20210;-72
2022/03/26 04:39:37;;;;;;;28.93;17.73;;;;;;;3.83;79.47;99174.78;5053327;28;20209;-73
2022/03/26 04:42:03;;;;;;;29.13;17.87;;;;;;;3.74;79.99;99175.88;5055054;28;20218;-71
2022/03/26 04:44:30;;;;;;;28.70;18.00;;;;;;;3.81;79.43;99182.69;5054982;28;20222;-71
2022/03/26 04:46:57;;;;;;;28.90;18.00;;;;;;;3.78;79.69;99193.22;5054854;28;20214;-71
2022/03/26 04:49:24;;;;;;;30.57;17.87;;;;;;;3.80;79.99;99185.34;5054826;28;20223;-71
2022/03/26 04:51:50;;;;;;;32.63;19.30;;;;;;;3.73;79.92;99187.22;5055506;28;20725;-71
2022/03/26 04:54:18;;;;;;;32.67;19.27;;;;;;;3.66;80.41;99196.13;5054555;28;20224;-71
2022/03/26 04:56:45;;;;;;;34.67;20.73;;;;;;;3.56;81.61;99191.19;5054542;28;20237;-71
2022/03/26 04:59:11;;;;;;;32.07;19.00;;;;;;;3.58;82.30;99198.09;5053921;28;20682;-71
2022/03/26 05:01:38;;;;;;;32.70;19.77;;;;;;;3.52;83.05;99200.84;5055753;28;20243;-71
2022/03/26 05:04:04;;;;;;;30.87;18.83;;;;;;;3.47;83.10;99194.88;5054163;28;20211;-71
2022/03/26 05:06:31;;;;;;;30.60;18.67;;;;;;;3.54;82.44;99199.03;5052502;28;20677;-71
2022/03/26 05:08:57;;;;;;;29.93;18.07;;;;;;;3.62;81.62;99186.63;5054429;28;20554;-72
2022/03/26 05:11:25;;;;;;;30.00;18.60;;;;;;;3.56;82.07;99191.19;5054380;28;20240;-72
2022/03/26 05:13:52;;;;;;;30.33;18.10;;;;;;;3.54;82.89;99204.28;5041019;28;20212;-72
2022/03/26 05:16:19;;;;;;;33.53;20.23;;;;;;;3.64;82.85;99200.56;5054124;28;20263;-72
2022/03/26 05:18:45;;;;;;;34.47;19.50;;;;;;;3.71;82.90;99202.09;5054404;28;20573;-72
2022/03/26 05:21:12;;;;;;;30.17;18.77;;;;;;;3.63;83.37;99193.59;5054169;28;20205;-71
2022/03/26 05:23:38;;;;;;;31.40;18.30;;;;;;;3.60;83.29;99204.13;5054207;28;20222;-71
2022/03/26 05:26:05;;;;;;;35.60;20.20;;;;;;;3.61;83.96;99208.44;5054397;28;20217;-72
2022/03/26 05:28:33;;;;;;;32.00;19.97;;;;;;;3.64;84.23;99205.78;5053895;28;20223;-73
2022/03/26 05:31:00;;;;;;;33.03;19.20;;;;;;;3.63;84.28;99214.53;5052724;28;20217;-71
2022/03/26 05:33:27;;;;;;;37.00;20.10;;;;;;;3.57;85.58;99211.19;5054549;28;20645;-71
2022/03/26 05:35:53;;;;;;;32.80;20.37;;;;;;;3.57;85.87;99209.44;5053864;28;20686;-70
2022/03/26 05:38:20;;;;;;;33.97;20.90;;;;;;;3.62;85.62;99217.16;5054137;28;20278;-71
2022/03/26 05:40:46;;;;;;;32.27;20.07;;;;;;;3.68;85.28;99217.84;5053866;28;20212;-72
2022/03/26 05:43:13;;;;;;;36.17;20.67;;;;;;;3.81;85.43;99228.88;5055225;28;20216;-71
2022/03/26 05:45:41;;;;;;;32.37;21.00;;;;;;;3.83;85.72;99227.94;5054241;28;20235;-71
2022/03/26 05:48:08;;;;;;;35.80;21.43;;;;;;;3.90;85.46;99228.63;5054167;28;20236;-72
2022/03/26 05:50:35;;;;;;;31.93;19.73;;;;;;;3.99;85.01;99225.81;5053856;28;20216;-71
2022/03/26 05:53:02;;;;;;;31.23;20.03;;;;;;;4.07;84.84;99227.31;5052742;28;20258;-72
2022/03/26 05:55:29;;;;;;;35.47;21.00;;;;;;;4.07;85.08;99232.56;5053989;28;20219;-70
2022/03/26 05:57:56;;;;;;;32.50;20.30;;;;;;;4.15;84.16;99232.38;5052000;28;20702;-71
2022/03/26 06:00:23;;;;;;;31.97;19.33;;;;;;;4.22;83.96;99244.38;5053600;28;20231;-72
2022/03/26 06:02:50;;;;;;;35.00;21.13;;;;;;;4.25;83.83;99242.53;5055386;28;20246;-72
2022/03/26 06:05:17;;;;;;;36.10;20.20;;;;;;;4.22;84.15;99242.59;5053921;28;20232;-70
2022/03/26 06:07:43;;;;;;;34.00;21.33;;;;;;;4.32;83.45;99249.31;5053886;28;20212;-71
2022/03/26 06:10:10;;;;;;;38.10;22.80;;;;;;;4.42;83.56;99256.03;5055758;28;20747;-72
2022/03/26 06:12:36;;;;;;;35.73;20.80;;;;;;;4.50;82.71;99264.53;5058727;28;20235;-72
2022/03/26 06:15:03;;;;;;;32.03;20.27;;;;;;;4.65;81.26;99269.34;5057590;28;20221;-72
2022/03/26 06:17:30;;;;;;;33.27;20.47;;;;;;;4.71;80.61;99263.94;5057491;28;20231;-72
2022/03/26 06:19:58;;;;;;;36.33;20.83;;;;;;;4.71;80.74;99261.31;5057394;28;20209;-72
2022/03/26 06:22:24;;;;;;;31.20;20.47;;;;;;;4.74;81.03;99263.84;5056235;28;20221;-72
2022/03/26 06:24:51;;;;;;;30.93;19.70;;;;;;;4.83;80.81;99268.81;5057086;28;20241;-71
2022/03/26 06:27:18;;;;;;;32.67;20.47;;;;;;;4.96;80.24;99270.19;5057490;28;20223;-72
2022/03/26 06:29:44;;;;;;;34.20;20.70;;;;;;;5.11;79.47;99275.00;5057142;28;20229;-71
2022/03/26 06:32:10;;;;;;;33.80;20.20;;;;;;;5.27;78.71;99281.50;5072226;28;20237;-71
2022/03/26 06:34:37;;;;;;;32.43;20.17;;;;;;;5.41;77.02;99289.81;5057489;28;20214;-72
2022/03/26 06:37:05;;;;;;;31.63;19.53;;;;;;;5.54;75.60;99285.03;5056905;28;20220;-72
2022/03/26 06:39:32;;;;;;;33.10;19.40;;;;;;;5.64;75.34;99284.72;5057226;28;20219;-72
2022/03/26 06:41:58;;;;;;;34.00;19.57;;;;;;;5.77;73.75;99287.78;5058480;28;20221;-72
2022/03/26 06:44:25;;;;;;;28.60;18.60;;;;;;;5.91;73.06;99283.84;5057225;28;20214;-71
2022/03/26 06:46:51;;;;;;;31.13;18.53;;;;;;;6.00;71.67;99280.94;5056970;28;20222;-71
2022/03/26 06:49:18;;;;;;;32.67;18.90;;;;;;;6.04;72.24;99282.53;5055530;28;20218;-72
2022/03/26 06:51:45;;;;;;;32.93;19.27;;;;;;;6.22;72.90;99292.44;5058207;28;20231;-72
2022/03/26 06:54:13;;;;;;;31.43;18.70;;;;;;;6.38;71.67;99288.38;5056840;28;20230;-72
2022/03/26 06:56:40;;;;;;;31.93;19.07;;;;;;;6.57;69.73;99294.72;5056843;28;20214;-72
2022/03/26 06:59:06;;;;;;;31.60;17.27;;;;;;;6.60;67.85;99294.59;5056813;28;20223;-70
2022/03/26 07:01:33;;;;;;;30.60;17.73;;;;;;;6.76;67.88;99301.03;5057768;28;20295;-70
2022/03/26 07:03:59;;;;;;;30.10;18.63;;;;;;;6.91;67.72;99303.09;5043075;28;20219;-70
2022/03/26 07:06:26;;;;;;;29.47;18.23;;;;;;;7.03;67.08;99294.78;5056784;28;20215;-71
2022/03/26 07:08:53;;;;;;;32.77;18.03;;;;;;;7.16;66.00;99300.44;5056698;28;20211;-70
2022/03/26 07:11:21;;;;;;;27.73;17.40;;;;;;;7.24;65.63;99294.84;5057458;28;20220;-72
2022/03/26 07:13:48;;;;;;;27.47;17.80;;;;;;;7.27;64.38;99299.13;5056356;28;20251;-70
2022/03/26 07:16:15;;;;;;;28.23;17.67;;;;;;;7.34;66.38;99298.00;5054970;28;20250;-71
2022/03/26 07:18:41;;;;;;;30.40;17.70;;;;;;;7.40;66.14;99295.09;5056646;28;20597;-71
2022/03/26 07:21:08;;;;;;;29.50;18.47;;;;;;;7.52;66.58;99298.13;5055295;28;20235;-70
2022/03/26 07:23:35;;;;;;;29.63;18.03;;;;;;;7.59;65.23;99296.16;5056054;28;20322;-70
2022/03/26 07:26:01;;;;;;;26.90;17.77;;;;;;;7.68;63.62;99301.03;5056295;28;20214;-70
2022/03/26 07:28:29;;;;;;;25.23;16.03;;;;;;;7.76;63.97;99312.97;5056012;28;20216;-71
2022/03/26 07:30:56;;;;;;;27.90;16.80;;;;;;;7.89;62.93;99308.94;5056125;28;20216;-70
2022/03/26 07:33:22;;;;;;;26.03;16.27;;;;;;;8.03;62.29;99305.75;5057077;28;20250;-71
2022/03/26 07:35:49;;;;;;;26.60;16.50;;;;;;;8.13;61.75;99309.72;5056112;28;20216;-71
2022/03/26 07:38:15;;;;;;;26.97;16.50;;;;;;;8.24;62.16;99310.16;5056125;28;20212;-72
2022/03/26 07:40:42;;;;;;;28.00;17.43;;;;;;;8.34;61.26;99316.78;5054078;28;20218;-72
2022/03/26 07:43:08;;;;;;;26.53;16.97;;;;;;;8.41;60.49;99308.56;5057372;28;20219;-72
2022/03/26 07:45:37;;;;;;;28.00;17.00;;;;;;;8.50;60.01;99313.44;5055702;28;20701;-71
2022/03/26 07:48:04;;;;;;;29.20;17.40;;;;;;;8.59;59.80;99314.81;5054006;28;20208;-70
2022/03/26 07:50:31;;;;;;;25.90;16.53;;;;;;;8.70;58.90;99317.88;5054245;28;20216;-71
2022/03/26 07:52:57;;;;;;;26.80;16.87;;;;;;;8.82;59.84;99310.25;5055707;28;20293;-71
2022/03/26 07:55:24;;;;;;;28.03;17.27;;;;;;;8.99;58.77;99306.91;5054389;28;20216;-71
2022/03/26 07:57:51;;;;;;;27.77;17.33;;;;;;;9.04;58.14;99313.69;5054361;28;20224;-69
2022/03/26 08:00:17;;;;;;;26.93;16.70;;;;;;;9.15;57.45;99313.19;5054036;28;20311;-71
2022/03/26 08:02:45;;;;;;;29.33;17.17;;;;;;;9.23;57.19;99309.28;5055150;28;20235;-71
2022/03/26 08:05:11;;;;;;;25.50;16.27;;;;;;;9.39;57.36;99312.09;5054209;28;20215;-71
2022/03/26 08:07:38;;;;;;;29.03;16.63;;;;;;;9.50;56.58;99312.47;5052215;28;20223;-72
2022/03/26 08:10:05;;;;;;;27.60;16.33;;;;;;;9.58;56.57;99307.66;5054045;28;20216;-71
2022/03/26 08:12:32;;;;;;;28.43;17.60;;;;;;;9.70;56.58;99312.38;5055308;28;20247;-71
2022/03/26 08:14:59;;;;;;;26.43;16.70;;;;;;;9.80;55.91;99321.59;5057302;28;20211;-71
2022/03/26 08:17:29;;;;;;;25.80;17.50;;;;;;;9.95;54.66;99320.84;5063999;28;20212;-71
2022/03/26 08:19:57;;;;;;;25.73;16.23;;;;;;;10.01;54.74;99318.78;5061424;28;20213;-71
2022/03/26 08:22:23;;;;;;;26.00;16.27;;;;;;;10.06;55.42;99322.09;5064831;28;20621;-71
2022/03/26 08:24:50;;;;;;;27.90;18.67;;;;;;;10.20;55.92;99324.03;5065499;28;20212;-71
2022/03/26 08:27:16;;;;;;;31.83;18.03;;;;;;;10.28;55.96;99322.72;5063570;28;20219;-71
2022/03/26 08:29:43;;;;;;;27.40;17.23;;;;;;;10.46;53.55;99321.00;5061712;28;20216;-71
2022/03/26 08:32:09;;;;;;;25.63;17.67;;;;;;;10.48;52.99;99321.75;5063656;28;20217;-71
2022/03/26 08:34:35;;;;;;;27.23;18.30;;;;;;;10.57;54.29;99331.84;5063185;28;20208;-71
2022/03/26 08:37:04;;;;;;;27.63;17.20;;;;;;;10.70;53.89;99325.03;5064089;28;20237;-71
2022/03/26 08:39:30;;;;;;;28.63;18.10;;;;;;;10.74;53.48;99329.22;5061222;28;20218;-71
2022/03/26 08:41:57;;;;;;;30.33;18.33;;;;;;;10.97;54.22;99326.25;5063602;28;20220;-71
2022/03/26 08:44:23;;;;;;;28.70;18.27;;;;;;;11.07;53.11;99330.16;5065064;28;20580;-70
2022/03/26 08:46:50;;;;;;;28.13;18.47;;;;;;;11.13;51.27;99327.19;5064327;28;20214;-70
2022/03/26 08:49:16;;;;;;;27.83;18.00;;;;;;;11.20;53.05;99339.16;5061256;28;20217;-70
2022/03/26 08:51:43;;;;;;;29.47;19.37;;;;;;;11.33;52.57;99337.56;5062721;28;20213;-71
2022/03/26 08:54:11;;;;;;;28.77;18.87;;;;;;;11.41;51.64;99333.56;5064786;28;20729;-69
2022/03/26 08:56:37;;;;;;;30.37;18.57;;;;;;;11.48;50.30;99334.06;5064492;28;20240;-70
2022/03/26 08:59:04;;;;;;;31.67;18.97;;;;;;;11.51;50.68;99336.56;5061211;28;20239;-70
2022/03/26 09:01:30;;;;;;;27.53;17.80;;;;;;;11.50;52.08;99338.34;5060847;28;20240;-72
2022/03/26 09:03:57;;;;;;;28.07;18.23;;;;;;;11.61;51.07;99330.72;5064869;28;20215;-70
2022/03/26 09:06:23;;;;;;;28.87;18.07;;;;;;;11.62;50.30;99342.19;5064800;28;20215;-69
2022/03/26 09:08:50;;;;;;;30.17;19.00;;;;;;;11.66;50.43;99333.13;5053234;28;20212;-71
2022/03/26 09:11:18;;;;;;;29.97;18.50;;;;;;;11.99;50.63;99340.06;5059119;28;20269;-71
2022/03/26 09:13:45;;;;;;;29.27;19.07;;;;;;;12.06;49.40;99338.81;5063438;28;20242;-69
2022/03/26 09:16:12;;;;;;;30.27;18.67;;;;;;;12.16;49.54;99339.97;5064292;28;20218;-69
2022/03/26 09:18:38;;;;;;;29.90;17.93;;;;;;;12.28;49.74;99333.13;5060671;28;20212;-70
2022/03/26 09:21:05;;;;;;;30.33;18.90;;;;;;;12.43;48.63;99330.47;5057443;28;20237;-69
2022/03/26 09:23:32;;;;;;;30.90;19.33;;;;;;;12.59;49.15;99327.78;5064626;28;20214;-69
2022/03/26 09:25:59;;;;;;;31.40;19.00;;;;;;;12.65;49.00;99327.41;5064602;28;20715;-69
2022/03/26 09:28:27;;;;;;;37.43;20.17;;;;;;;12.79;49.30;99319.50;5058216;28;20219;-71
2022/03/26 09:30:54;;;;;;;31.47;19.47;;;;;;;12.89;47.10;99315.34;5058114;28;20223;-70
2022/03/26 09:33:21;;;;;;;29.20;19.50;;;;;;;12.97;47.83;99319.25;5064663;28;20246;-70
2022/03/26 09:35:48;;;;;;;31.23;19.33;;;;;;;13.12;46.65;99317.47;5064374;28;20449;-69
2022/03/26 09:38:14;;;;;;;29.87;19.40;;;;;;;13.16;46.83;99313.72;5061580;28;20230;-69
2022/03/26 09:40:43;;;;;;;30.17;19.23;;;;;;;13.22;46.96;99310.69;5060834;28;20211;-70
2022/03/26 09:43:13;;;;;;;29.13;18.80;;;;;;;13.21;46.90;99306.31;5064487;28;20216;-70
2022/03/26 09:45:41;;;;;;;29.40;19.40;;;;;;;13.39;47.32;99305.19;5067578;28;20218;-70
2022/03/26 09:48:08;;;;;;;31.70;19.53;;;;;;;13.53;47.21;99310.50;5064909;28;20223;-70
2022/03/26 09:50:35;;;;;;;30.93;19.93;;;;;;;13.59;45.72;99303.00;5065098;28;20223;-70
2022/03/26 09:53:01;;;;;;;29.60;19.00;;;;;;;13.75;44.95;99298.41;5068186;28;20238;-70
2022/03/26 09:55:29;;;;;;;32.10;19.80;;;;;;;13.81;45.06;99297.19;5066466;28;20214;-69
2022/03/26 09:57:55;;;;;;;31.03;20.07;;;;;;;13.89;44.47;99294.88;5064713;28;20211;-70
2022/03/26 10:00:22;;;;;;;30.33;20.27;;;;;;;14.06;44.94;99295.50;5064703;28;20565;-69
2022/03/26 10:02:51;;;;;;;32.43;20.23;;;;;;;14.14;43.65;99302.97;5068429;28;20260;-69
2022/03/26 10:05:18;;;;;;;33.90;20.23;;;;;;;14.24;44.22;99296.16;5068165;28;20219;-70
2022/03/26 10:07:47;;;;;;;34.40;20.07;;;;;;;14.44;43.12;99298.34;5064608;28;20224;-70
2022/03/26 10:10:22;;;;;;;33.00;20.83;;;;;;;14.53;42.03;99292.38;5064609;28;20580;-70
2022/03/26 10:12:51;;;;;;;31.17;19.43;;;;;;;14.77;43.55;99296.06;5067551;28;20330;-70
2022/03/26 10:15:17;;;;;;;30.80;20.30;;;;;;;14.92;42.50;99293.22;5067463;28;20211;-70
2022/03/26 10:17:46;;;;;;;33.30;19.80;;;;;;;14.96;42.19;99288.56;5064199;28;20580;-69
2022/03/26 10:20:15;;;;;;;31.87;19.67;;;;;;;14.99;41.97;99285.66;5065055;28;20208;-69
2022/03/26 10:22:43;;;;;;;30.03;19.27;;;;;;;15.05;43.26;99279.91;5066466;28;20673;-70
2022/03/26 10:25:11;;;;;;;32.43;19.73;;;;;;;15.19;41.89;99282.47;5066938;28;20223;-69
2022/03/26 10:27:40;;;;;;;31.73;20.53;;;;;;;15.39;41.86;99279.31;5063657;28;20216;-69
2022/03/26 10:30:07;;;;;;;30.77;20.13;;;;;;;15.20;40.20;99278.84;5065617;28;20227;-69
2022/03/26 10:32:41;;;;;;;32.67;20.27;;;;;;;15.19;41.01;99271.81;5067386;28;20298;-69
2022/03/26 10:35:18;;;;;;;33.30;20.37;;;;;;;15.36;40.02;99269.72;5065351;28;20297;-69
2022/03/26 10:37:51;;;;;;;29.57;19.57;;;;;;;15.52;39.37;99273.00;5064021;28;20586;-69
2022/03/26 10:40:24;;;;;;;31.80;20.87;;;;;;;15.61;40.46;99268.81;5067698;28;20546;-69
2022/03/26 10:42:56;;;;;;;28.83;19.90;;;;;;;15.82;39.32;99268.13;5066708;28;20366;-69
2022/03/26 10:45:22;;;;;;;29.63;19.87;;;;;;;16.07;39.37;99267.22;5060533;28;20219;-69
2022/03/26 10:47:50;;;;;;;30.97;19.30;;;;;;;16.33;38.63;99258.97;5064052;28;20212;-69
2022/03/26 10:50:18;;;;;;;31.70;20.33;;;;;;;16.51;38.36;99263.81;5067384;28;20303;-70
2022/03/26 10:52:45;;;;;;;28.57;19.43;;;;;;;16.40;37.25;99261.09;5066023;28;20219;-70
2022/03/26 10:55:16;;;;;;;29.60;19.07;;;;;;;16.29;37.54;99261.03;5063025;28;20212;-70
2022/03/26 10:57:45;;;;;;;31.33;20.50;;;;;;;16.43;36.80;99250.19;5065295;28;20216;-69
2022/03/26 11:00:13;;;;;;;29.97;19.10;;;;;;;16.38;38.35;99256.81;5067263;28;20239;-70
2022/03/26 11:02:41;;;;;;;29.97;18.03;;;;;;;16.52;37.54;99244.16;5065531;28;20251;-70
2022/03/26 11:05:09;;;;;;;32.25;20.98;;;;;;;16.54;37.42;99242.25;5063331;28;20922;-71
2022/03/26 11:07:40;;;;;;;28.47;18.73;;;;;;;16.69;34.94;99238.38;5066344;28;20211;-71
2022/03/26 11:10:08;;;;;;;28.80;17.60;;;;;;;16.79;36.36;99244.75;5066899;28;20226;-72
2022/03/26 11:12:35;;;;;;;24.90;17.20;;;;;;;17.27;33.99;99232.03;5064321;28;20216;-72
2022/03/26 11:15:07;;;;;;;34.00;16.77;;;;;;;17.42;33.54;99231.72;5061606;28;20602;-72
2022/03/26 11:17:44;;;;;;;23.90;16.80;;;;;;;17.46;32.38;99241.19;5049581;28;20207;-69
2022/03/26 11:20:24;;;;;;;24.03;16.13;;;;;;;17.51;33.24;99231.00;5063056;28;20208;-72
2022/03/26 11:23:08;;;;;;;24.17;16.53;;;;;;;17.55;32.84;99232.44;5062897;28;20216;-71